createdAt,value
2017-11-06T00:00:37.101Z,6.66
2017-11-06T00:03:04.655Z,6.64
2017-11-06T00:05:32.232Z,6.67
2017-11-06T00:07:59.803Z,6.69
2017-11-06T00:10:27.347Z,6.69
2017-11-06T00:12:54.948Z,6.70
2017-11-06T00:15:22.534Z,6.68
2017-11-06T00:17:50.080Z,6.66
2017-11-06T00:20:17.644Z,6.67
2017-11-06T00:22:45.197Z,6.68
2017-11-06T00:25:13.152Z,6.69
2017-11-06T00:27:40.695Z,6.66
2017-11-06T00:30:08.249Z,6.67
2017-11-06T00:32:35.905Z,6.66
2017-11-06T00:35:03.520Z,6.65
2017-11-06T00:37:31.097Z,6.64
2017-11-06T00:39:58.649Z,6.62
2017-11-06T00:42:26.303Z,6.63
2017-11-06T00:44:53.867Z,6.61
2017-11-06T00:47:21.446Z,6.62
2017-11-06T00:49:49.035Z,6.60
2017-11-06T00:52:16.593Z,6.61
2017-11-06T00:54:44.169Z,6.62
2017-11-06T00:57:11.965Z,6.62
2017-11-06T00:59:39.909Z,6.56
2017-11-06T01:02:07.450Z,6.55
2017-11-06T01:04:35.001Z,6.54
2017-11-06T01:07:02.581Z,6.56
2017-11-06T01:09:30.179Z,6.56
2017-11-06T01:11:57.755Z,6.46
2017-11-06T01:14:25.304Z,6.43
2017-11-06T01:16:52.893Z,6.39
2017-11-06T01:19:20.467Z,6.40
2017-11-06T01:21:48.101Z,6.41
2017-11-06T01:24:15.713Z,6.42
2017-11-06T01:26:43.275Z,6.38
2017-11-06T01:29:10.849Z,6.38
2017-11-06T01:31:38.969Z,6.33
2017-11-06T01:34:06.513Z,6.28
2017-11-06T01:36:34.258Z,6.21
2017-11-06T01:39:01.816Z,6.18
2017-11-06T01:41:29.367Z,6.20
2017-11-06T01:43:56.908Z,6.19
2017-11-06T01:46:24.759Z,6.19
2017-11-06T01:48:52.292Z,6.21
2017-11-06T01:51:19.845Z,6.16
2017-11-06T01:53:47.411Z,6.03
2017-11-06T01:56:14.953Z,6.06
2017-11-06T01:58:42.863Z,6.02
2017-11-06T02:01:10.395Z,6.00
2017-11-06T02:03:37.935Z,6.00
2017-11-06T02:06:05.492Z,5.94
2017-11-06T02:08:33.055Z,5.97
2017-11-06T02:11:00.887Z,5.97
2017-11-06T02:13:28.429Z,6.03
2017-11-06T02:15:55.969Z,6.05
2017-11-06T02:18:23.552Z,6.04
2017-11-06T02:20:51.092Z,6.06
2017-11-06T02:23:18.976Z,6.04
2017-11-06T02:25:46.514Z,6.04
2017-11-06T02:28:14.050Z,6.04
2017-11-06T02:30:41.626Z,6.00
2017-11-06T02:33:09.218Z,6.00
2017-11-06T02:35:36.790Z,6.00
2017-11-06T02:38:04.354Z,5.99
2017-11-06T02:40:31.912Z,5.99
2017-11-06T02:42:59.447Z,5.97
2017-11-06T02:45:27.029Z,5.93
2017-11-06T02:47:54.572Z,5.91
2017-11-06T02:50:22.114Z,5.80
2017-11-06T02:52:49.679Z,5.72
2017-11-06T02:55:17.236Z,5.70
2017-11-06T02:57:44.783Z,5.66
2017-11-06T03:00:12.368Z,5.70
2017-11-06T03:02:39.931Z,5.75
2017-11-06T03:05:07.466Z,5.66
2017-11-06T03:07:35.370Z,5.66
2017-11-06T03:10:02.902Z,5.71
2017-11-06T03:12:30.484Z,5.72
2017-11-06T03:14:58.057Z,5.70
2017-11-06T03:17:25.580Z,5.68
2017-11-06T03:19:53.151Z,5.63
2017-11-06T03:22:20.679Z,5.56
2017-11-06T03:24:48.593Z,5.62
2017-11-06T03:27:16.126Z,5.54
2017-11-06T03:29:43.649Z,5.55
2017-11-06T03:32:11.347Z,5.62
2017-11-06T03:34:39.016Z,5.55
2017-11-06T03:37:06.571Z,5.57
2017-11-06T03:39:34.243Z,5.52
2017-11-06T03:42:01.847Z,5.54
2017-11-06T03:44:29.380Z,5.54
2017-11-06T03:46:56.904Z,5.54
2017-11-06T03:49:24.456Z,5.53
2017-11-06T03:51:52.563Z,5.53
2017-11-06T03:54:20.105Z,5.56
2017-11-06T03:56:47.641Z,5.60
2017-11-06T03:59:15.477Z,5.63
2017-11-06T04:01:43.026Z,5.60
2017-11-06T04:04:10.573Z,5.61
2017-11-06T04:06:38.115Z,5.65
2017-11-06T04:09:05.644Z,5.65
2017-11-06T04:11:33.196Z,5.63
2017-11-06T04:14:00.734Z,5.64
2017-11-06T04:16:28.807Z,5.66
2017-11-06T04:18:57.034Z,5.70
2017-11-06T04:21:24.588Z,5.71
2017-11-06T04:23:52.157Z,5.71
2017-11-06T04:26:19.683Z,5.73
2017-11-06T04:28:47.626Z,5.72
2017-11-06T04:31:15.227Z,5.76
2017-11-06T04:33:44.698Z,5.72
2017-11-06T04:36:12.248Z,5.77
2017-11-06T04:38:39.798Z,5.72
2017-11-06T04:41:07.344Z,5.77
2017-11-06T04:43:34.968Z,5.83
2017-11-06T04:46:02.558Z,5.85
2017-11-06T04:48:30.104Z,5.83
2017-11-06T04:50:57.937Z,5.85
2017-11-06T04:53:25.470Z,5.86
2017-11-06T04:55:53.013Z,5.86
2017-11-06T04:58:20.555Z,5.84
2017-11-06T05:00:48.100Z,5.83
2017-11-06T05:03:16.009Z,5.84
2017-11-06T05:05:43.968Z,5.84
2017-11-06T05:08:11.543Z,5.77
2017-11-06T05:10:39.103Z,5.75
2017-11-06T05:13:06.638Z,5.74
2017-11-06T05:15:34.301Z,5.74
2017-11-06T05:18:01.852Z,5.76
2017-11-06T05:20:29.376Z,5.78
2017-11-06T05:22:57.084Z,5.81
2017-11-06T05:25:24.628Z,5.84
2017-11-06T05:27:52.168Z,5.86
2017-11-06T05:30:20.082Z,5.83
2017-11-06T05:32:47.632Z,5.82
2017-11-06T05:35:15.278Z,5.82
2017-11-06T05:37:42.860Z,5.82
2017-11-06T05:40:10.410Z,5.82
2017-11-06T05:42:37.967Z,5.67
2017-11-06T05:45:05.540Z,5.67
2017-11-06T05:47:33.082Z,5.69
2017-11-06T05:50:00.644Z,5.68
2017-11-06T05:52:28.192Z,5.62
2017-11-06T05:54:55.762Z,5.67
2017-11-06T05:57:23.302Z,5.70
2017-11-06T05:59:50.856Z,5.74
2017-11-06T06:02:18.513Z,5.77
2017-11-06T06:04:46.052Z,5.81
2017-11-06T06:07:13.782Z,5.83
2017-11-06T06:09:41.336Z,5.84
2017-11-06T06:12:09.455Z,5.86
2017-11-06T06:14:37.007Z,5.84
2017-11-06T06:17:04.554Z,5.87
2017-11-06T06:19:32.118Z,5.88
2017-11-06T06:21:59.677Z,5.85
2017-11-06T06:24:27.603Z,5.87
2017-11-06T06:26:55.147Z,5.92
2017-11-06T06:29:22.788Z,5.95
2017-11-06T06:31:50.346Z,5.96
2017-11-06T06:34:17.889Z,5.98
2017-11-06T06:36:45.445Z,5.98
2017-11-06T06:39:12.994Z,5.99
2017-11-06T06:41:40.826Z,6.01
2017-11-06T06:44:08.373Z,6.01
2017-11-06T06:46:35.909Z,6.04
2017-11-06T06:49:03.471Z,6.04
2017-11-06T06:51:31.007Z,6.06
2017-11-06T06:53:58.566Z,6.07
2017-11-06T06:56:26.107Z,6.06
2017-11-06T06:58:53.642Z,6.04
2017-11-06T07:01:21.195Z,6.03
2017-11-06T07:03:48.747Z,6.04
2017-11-06T07:06:16.317Z,6.06
2017-11-06T07:08:43.851Z,6.08
2017-11-06T07:11:11.533Z,6.12
2017-11-06T07:13:39.080Z,6.15
2017-11-06T07:16:06.972Z,6.19
2017-11-06T07:18:34.502Z,6.21
2017-11-06T07:21:02.043Z,6.22
2017-11-06T07:23:29.607Z,6.24
2017-11-06T07:25:57.149Z,6.27
2017-11-06T07:28:25.095Z,6.28
2017-11-06T07:30:52.654Z,6.29
2017-11-06T07:33:20.225Z,6.30
2017-11-06T07:35:47.834Z,6.30
2017-11-06T07:38:15.386Z,6.31
2017-11-06T07:40:43.012Z,6.32
2017-11-06T07:43:10.680Z,6.37
2017-11-06T07:45:38.342Z,6.41
2017-11-06T07:48:05.901Z,6.44
2017-11-06T07:50:33.547Z,6.48
2017-11-06T07:53:01.096Z,6.49
2017-11-06T07:55:28.639Z,6.53
2017-11-06T07:57:56.209Z,6.57
2017-11-06T08:00:23.740Z,6.59
2017-11-06T08:02:51.666Z,6.51
2017-11-06T08:05:19.209Z,6.59
2017-11-06T08:07:46.803Z,6.66
2017-11-06T08:10:14.484Z,6.67
2017-11-06T08:12:42.143Z,6.67
2017-11-06T08:15:09.728Z,6.67
2017-11-06T08:17:37.273Z,6.64
2017-11-06T08:20:04.819Z,6.63
2017-11-06T08:22:32.389Z,6.69
2017-11-06T08:25:00.016Z,6.79
2017-11-06T08:27:27.583Z,6.80
2017-11-06T08:29:55.129Z,6.91
2017-11-06T08:32:22.676Z,7.00
2017-11-06T08:34:50.244Z,7.03
2017-11-06T08:37:17.795Z,7.08
2017-11-06T08:39:45.354Z,7.02
2017-11-06T08:42:13.005Z,7.03
2017-11-06T08:44:40.583Z,6.93
2017-11-06T08:47:08.140Z,6.98
2017-11-06T08:49:35.693Z,7.02
2017-11-06T08:52:03.305Z,6.93
2017-11-06T08:54:30.864Z,6.89
2017-11-06T08:56:58.454Z,6.85
2017-11-06T08:59:26.004Z,6.86
2017-11-06T09:01:53.572Z,7.00
2017-11-06T09:04:21.208Z,7.08
2017-11-06T09:06:48.992Z,7.13
2017-11-06T09:09:16.542Z,7.17
2017-11-06T09:11:44.088Z,7.20
2017-11-06T09:14:11.651Z,7.12
2017-11-06T09:16:39.203Z,7.17
2017-11-06T09:19:06.765Z,7.29
2017-11-06T09:21:34.329Z,7.34
2017-11-06T09:24:01.895Z,7.40
2017-11-06T09:26:29.456Z,7.40
2017-11-06T09:28:57.384Z,7.39
2017-11-06T09:31:24.929Z,7.42
2017-11-06T09:33:52.474Z,7.35
2017-11-06T09:36:20.051Z,7.35
2017-11-06T09:38:47.605Z,7.40
2017-11-06T09:41:15.189Z,7.34
2017-11-06T09:43:42.739Z,7.43
2017-11-06T09:46:10.282Z,7.36
2017-11-06T09:48:37.848Z,7.34
2017-11-06T09:51:05.401Z,7.43
2017-11-06T09:53:33.279Z,7.41
2017-11-06T09:56:00.830Z,7.48
2017-11-06T09:58:28.377Z,7.46
2017-11-06T10:00:55.936Z,7.47
2017-11-06T10:03:23.492Z,7.52
2017-11-06T10:05:51.053Z,7.45
2017-11-06T10:08:18.580Z,7.49
2017-11-06T10:10:46.160Z,7.47
2017-11-06T10:13:13.712Z,7.48
2017-11-06T10:15:41.273Z,7.33
2017-11-06T10:18:08.915Z,7.32
2017-11-06T10:20:36.487Z,7.34
2017-11-06T10:23:04.413Z,7.32
2017-11-06T10:25:32.051Z,7.30
2017-11-06T10:27:59.598Z,7.33
2017-11-06T10:30:27.164Z,7.34
2017-11-06T10:32:54.697Z,7.35
2017-11-06T10:35:22.318Z,7.35
2017-11-06T10:37:49.886Z,7.31
2017-11-06T10:40:17.515Z,7.22
2017-11-06T10:42:45.233Z,7.22
2017-11-06T10:45:12.789Z,7.19
2017-11-06T10:47:40.354Z,7.17
2017-11-06T10:50:07.892Z,7.17
2017-11-06T10:52:35.447Z,7.19
2017-11-06T10:55:03.015Z,7.16
2017-11-06T10:57:30.566Z,7.16
2017-11-06T10:59:58.130Z,7.05
2017-11-06T11:02:25.703Z,7.05
2017-11-06T11:04:53.342Z,7.11
2017-11-06T11:07:20.904Z,7.17
2017-11-06T11:09:48.476Z,7.15
2017-11-06T11:12:16.193Z,7.18
2017-11-06T11:14:43.766Z,7.12
2017-11-06T11:17:11.396Z,7.14
2017-11-06T11:19:38.942Z,7.15
2017-11-06T11:22:06.518Z,7.15
2017-11-06T11:24:34.184Z,7.13
2017-11-06T11:27:02.089Z,7.14
2017-11-06T11:29:29.711Z,7.10
2017-11-06T11:31:57.329Z,7.13
2017-11-06T11:34:24.899Z,7.14
2017-11-06T11:36:52.434Z,7.21
2017-11-06T11:39:20.092Z,7.27
2017-11-06T11:41:47.617Z,7.31
2017-11-06T11:44:15.160Z,7.29
2017-11-06T11:46:42.741Z,7.31
2017-11-06T11:49:10.300Z,7.33
2017-11-06T11:51:37.889Z,7.32
2017-11-06T11:54:05.437Z,7.28
2017-11-06T11:56:33.106Z,7.25
2017-11-06T11:59:00.669Z,7.28
2017-11-06T12:01:28.206Z,7.32
2017-11-06T12:03:55.761Z,7.38
2017-11-06T12:06:23.317Z,7.42
2017-11-06T12:08:50.890Z,7.44
2017-11-06T12:11:18.431Z,7.41
2017-11-06T12:13:45.971Z,7.37
2017-11-06T12:16:13.536Z,7.29
2017-11-06T12:18:41.190Z,7.29
2017-11-06T12:21:08.750Z,7.23
2017-11-06T12:23:36.306Z,7.24
2017-11-06T12:26:03.866Z,7.22
2017-11-06T12:28:31.461Z,7.24
2017-11-06T12:30:59.007Z,7.23
2017-11-06T12:33:26.590Z,7.18
2017-11-06T12:35:54.132Z,7.16
2017-11-06T12:38:21.701Z,7.13
2017-11-06T12:40:49.255Z,7.15
2017-11-06T12:43:16.817Z,7.18
2017-11-06T12:45:44.397Z,7.20
2017-11-06T12:48:11.986Z,7.17
2017-11-06T12:50:39.840Z,7.13
2017-11-06T12:53:07.375Z,7.05
2017-11-06T12:55:34.961Z,7.06
2017-11-06T12:58:02.561Z,7.08
2017-11-06T13:00:30.107Z,7.04
2017-11-06T13:02:59.130Z,7.05
2017-11-06T13:05:26.663Z,7.08
2017-11-06T13:07:54.531Z,7.06
2017-11-06T13:10:22.136Z,7.09
2017-11-06T13:12:49.911Z,7.05
2017-11-06T13:15:17.484Z,7.04
2017-11-06T13:17:45.193Z,7.01
2017-11-06T13:20:12.759Z,6.97
2017-11-06T13:22:40.314Z,6.96
2017-11-06T13:25:07.852Z,6.94
2017-11-06T13:27:35.558Z,6.95
2017-11-06T13:30:03.104Z,6.97
2017-11-06T13:32:30.769Z,6.99
2017-11-06T13:34:58.422Z,6.94
2017-11-06T13:37:25.997Z,6.95
2017-11-06T13:39:53.556Z,6.94
2017-11-06T13:42:21.106Z,6.95
2017-11-06T13:44:48.695Z,6.96
2017-11-06T13:47:16.237Z,6.97
2017-11-06T13:49:43.795Z,6.97
2017-11-06T13:52:11.352Z,6.98
2017-11-06T13:54:38.956Z,6.97
2017-11-06T13:57:06.496Z,6.97
2017-11-06T13:59:34.057Z,6.97
2017-11-06T14:02:01.722Z,6.94
2017-11-06T14:04:29.288Z,6.90
2017-11-06T14:06:56.853Z,6.89
2017-11-06T14:09:24.401Z,6.93
2017-11-06T14:11:51.957Z,6.93
2017-11-06T14:14:19.532Z,6.89
2017-11-06T14:16:47.193Z,6.89
2017-11-06T14:19:14.934Z,6.91
2017-11-06T14:21:42.622Z,6.95
2017-11-06T14:24:10.264Z,6.96
2017-11-06T14:26:37.801Z,6.97
2017-11-06T14:29:05.739Z,6.96
2017-11-06T14:31:33.297Z,6.98
2017-11-06T14:34:00.850Z,6.99
2017-11-06T14:36:28.422Z,7.00
2017-11-06T14:38:56.011Z,6.99
2017-11-06T14:41:23.604Z,6.99
2017-11-06T14:43:51.148Z,6.98
2017-11-06T14:46:19.052Z,6.98
2017-11-06T14:48:46.646Z,6.97
2017-11-06T14:51:14.210Z,6.93
2017-11-06T14:53:41.828Z,6.94
2017-11-06T14:56:09.361Z,6.95
2017-11-06T14:58:36.928Z,6.95
2017-11-06T15:01:04.794Z,6.95
2017-11-06T15:03:32.372Z,6.91
2017-11-06T15:05:59.970Z,6.90
2017-11-06T15:08:27.527Z,6.86
2017-11-06T15:10:55.090Z,6.83
2017-11-06T15:13:22.643Z,6.82
2017-11-06T15:15:50.650Z,6.83
2017-11-06T15:18:18.198Z,6.83
2017-11-06T15:20:45.752Z,6.83
2017-11-06T15:23:13.324Z,6.78
2017-11-06T15:25:40.870Z,6.76
2017-11-06T15:28:08.457Z,6.73
2017-11-06T15:30:35.987Z,6.70
2017-11-06T15:33:03.588Z,6.66
2017-11-06T15:35:31.210Z,6.68
2017-11-06T15:37:59.114Z,6.68
2017-11-06T15:40:26.729Z,6.66
2017-11-06T15:42:54.330Z,6.66
2017-11-06T15:45:21.944Z,6.67
2017-11-06T15:47:49.488Z,6.66
2017-11-06T15:50:17.076Z,6.60
2017-11-06T15:52:44.635Z,6.58
2017-11-06T15:55:12.254Z,6.59
2017-11-06T15:57:39.809Z,6.58
2017-11-06T16:00:07.359Z,6.60
2017-11-06T16:02:34.950Z,6.58
2017-11-06T16:05:03.202Z,6.56
2017-11-06T16:07:30.792Z,6.54
2017-11-06T16:09:58.366Z,6.55
2017-11-06T16:12:26.426Z,6.55
2017-11-06T16:14:54.025Z,6.54
2017-11-06T16:17:21.663Z,6.54
2017-11-06T16:19:49.263Z,6.56
2017-11-06T16:22:16.827Z,6.54
2017-11-06T16:24:44.498Z,6.56
2017-11-06T16:27:12.048Z,6.58
2017-11-06T16:29:39.955Z,6.57
2017-11-06T16:32:07.537Z,6.57
2017-11-06T16:34:35.161Z,6.59
2017-11-06T16:37:02.893Z,6.59
2017-11-06T16:39:30.548Z,6.58
2017-11-06T16:41:58.141Z,6.57
2017-11-06T16:44:25.735Z,6.55
2017-11-06T16:46:53.328Z,6.56
2017-11-06T16:49:20.891Z,6.58
2017-11-06T16:51:48.464Z,6.58
2017-11-06T16:54:16.041Z,6.59
2017-11-06T16:56:43.627Z,6.58
2017-11-06T16:59:11.217Z,6.58
2017-11-06T17:01:38.802Z,6.58
2017-11-06T17:04:06.411Z,6.55
2017-11-06T17:06:33.985Z,6.53
2017-11-06T17:09:01.564Z,6.54
2017-11-06T17:11:29.212Z,6.54
2017-11-06T17:13:56.933Z,6.55
2017-11-06T17:16:24.534Z,6.53
2017-11-06T17:18:52.072Z,6.53
2017-11-06T17:21:19.704Z,6.52
2017-11-06T17:23:47.290Z,6.51
2017-11-06T17:26:15.023Z,6.51
2017-11-06T17:28:42.591Z,6.50
2017-11-06T17:31:10.166Z,6.50
2017-11-06T17:33:37.764Z,6.48
2017-11-06T17:36:05.328Z,6.48
2017-11-06T17:38:32.939Z,6.49
2017-11-06T17:41:00.516Z,6.48
2017-11-06T17:43:28.084Z,6.48
2017-11-06T17:45:55.671Z,6.48
2017-11-06T17:48:23.266Z,6.47
2017-11-06T17:50:51.280Z,6.48
2017-11-06T17:53:18.840Z,6.48
2017-11-06T17:55:46.457Z,6.48
2017-11-06T17:58:14.476Z,6.44
2017-11-06T18:00:42.274Z,6.42
2017-11-06T18:03:09.891Z,6.41
2017-11-06T18:05:37.468Z,6.40
2017-11-06T18:08:05.435Z,6.40
2017-11-06T18:10:33.091Z,6.42
2017-11-06T18:13:00.852Z,6.42
2017-11-06T18:15:28.452Z,6.43
2017-11-06T18:17:56.049Z,6.41
2017-11-06T18:20:23.692Z,6.39
2017-11-06T18:22:51.257Z,6.39
2017-11-06T18:25:19.775Z,6.40
2017-11-06T18:27:47.847Z,6.40
2017-11-06T18:30:15.425Z,6.38
2017-11-06T18:32:43.115Z,6.39
2017-11-06T18:35:10.783Z,6.42
2017-11-06T18:37:38.371Z,6.45
2017-11-06T18:40:05.953Z,6.45
2017-11-06T18:42:33.590Z,6.44
2017-11-06T18:45:01.192Z,6.43
2017-11-06T18:47:29.136Z,6.43
2017-11-06T18:49:56.729Z,6.44
2017-11-06T18:52:24.326Z,6.43
2017-11-06T18:54:51.934Z,6.42
2017-11-06T18:57:19.543Z,6.42
2017-11-06T18:59:47.194Z,6.42
2017-11-06T19:02:14.840Z,6.41
2017-11-06T19:04:42.474Z,6.41
2017-11-06T19:07:10.459Z,6.40
2017-11-06T19:09:38.026Z,6.39
2017-11-06T19:12:05.692Z,6.41
2017-11-06T19:14:33.295Z,6.41
2017-11-06T19:17:00.975Z,6.41
2017-11-06T19:19:29.181Z,6.41
2017-11-06T19:21:56.842Z,6.43
2017-11-06T19:24:24.523Z,6.42
2017-11-06T19:26:52.186Z,6.40
2017-11-06T19:29:19.979Z,6.38
2017-11-06T19:31:47.605Z,6.39
2017-11-06T19:34:15.253Z,6.38
2017-11-06T19:36:42.892Z,6.39
2017-11-06T19:39:11.656Z,6.40
2017-11-06T19:41:39.372Z,6.41
2017-11-06T19:44:07.077Z,6.41
2017-11-06T19:46:34.836Z,6.41
2017-11-06T19:49:04.834Z,6.41
2017-11-06T19:51:33.491Z,6.41
2017-11-06T19:54:01.324Z,6.41
2017-11-06T19:56:29.435Z,6.42
2017-11-06T19:58:57.284Z,6.41
2017-11-06T20:01:25.271Z,6.40
2017-11-06T20:03:53.113Z,6.40
2017-11-06T20:06:20.876Z,6.41
2017-11-06T20:08:49.540Z,6.42
2017-11-06T20:11:17.743Z,6.42
2017-11-06T20:13:45.487Z,6.41
2017-11-06T20:16:13.389Z,6.39
2017-11-06T20:18:41.277Z,6.40
2017-11-06T20:21:09.151Z,6.40
2017-11-06T20:23:37.071Z,6.39
2017-11-06T20:26:04.949Z,6.38
2017-11-06T20:28:32.667Z,6.37
2017-11-06T20:31:00.600Z,6.37
2017-11-06T20:33:28.483Z,6.37
2017-11-06T20:35:56.431Z,6.36
2017-11-06T20:38:24.177Z,6.37
2017-11-06T20:40:51.908Z,6.36
2017-11-06T20:43:19.702Z,6.34
2017-11-06T20:45:48.902Z,6.35
2017-11-06T20:48:16.946Z,6.37
2017-11-06T20:50:45.458Z,6.34
2017-11-06T20:53:13.240Z,6.36
2017-11-06T20:55:41.083Z,6.35
2017-11-06T20:58:09.674Z,6.33
2017-11-06T21:00:38.722Z,6.34
2017-11-06T21:03:06.434Z,6.33
2017-11-06T21:05:34.222Z,6.34
2017-11-06T21:08:01.936Z,6.34
2017-11-06T21:10:29.596Z,6.35
2017-11-06T21:12:57.242Z,6.36
2017-11-06T21:15:25.014Z,6.36
2017-11-06T21:17:52.732Z,6.35
2017-11-06T21:20:20.345Z,6.36
2017-11-06T21:22:47.932Z,6.35
2017-11-06T21:25:15.723Z,6.36
2017-11-06T21:27:43.346Z,6.36
2017-11-06T21:30:16.598Z,6.34
2017-11-06T21:32:56.745Z,6.34
2017-11-06T21:35:24.527Z,6.37
2017-11-06T21:37:52.297Z,6.38
2017-11-06T21:40:19.918Z,6.38
2017-11-06T21:42:47.503Z,6.37
2017-11-06T21:45:15.435Z,6.36
2017-11-06T21:47:43.008Z,6.37
2017-11-06T21:50:10.576Z,6.37
2017-11-06T21:52:38.346Z,6.38
2017-11-06T21:55:05.911Z,6.37
2017-11-06T21:57:33.838Z,6.37
2017-11-06T22:00:01.419Z,6.39
2017-11-06T22:02:28.988Z,6.37
2017-11-06T22:04:56.563Z,6.38
2017-11-06T22:07:24.111Z,6.37
2017-11-06T22:09:51.779Z,6.34
2017-11-06T22:12:19.352Z,6.34
2017-11-06T22:14:46.912Z,6.35
2017-11-06T22:17:14.644Z,6.33
2017-11-06T22:19:42.204Z,6.34
2017-11-06T22:22:09.781Z,6.33
2017-11-06T22:24:37.350Z,6.33
2017-11-06T22:27:04.960Z,6.32
2017-11-06T22:29:32.540Z,6.32
2017-11-06T22:32:00.119Z,6.34
2017-11-06T22:34:27.701Z,6.33
2017-11-06T22:36:55.259Z,6.33
2017-11-06T22:39:24.040Z,6.33
2017-11-06T22:41:51.905Z,6.32
2017-11-06T22:44:19.526Z,6.31
2017-11-06T22:46:47.093Z,6.30
2017-11-06T22:49:14.713Z,6.28
2017-11-06T22:51:42.302Z,6.29
2017-11-06T22:54:09.839Z,6.29
2017-11-06T22:56:37.467Z,6.31
2017-11-06T22:59:05.028Z,6.31
2017-11-06T23:01:32.632Z,6.32
2017-11-06T23:04:00.199Z,6.30
2017-11-06T23:06:27.759Z,6.30
2017-11-06T23:08:55.421Z,6.30
2017-11-06T23:11:22.974Z,6.30
2017-11-06T23:13:50.535Z,6.31
2017-11-06T23:16:18.087Z,6.29
2017-11-06T23:18:45.984Z,6.28
2017-11-06T23:21:13.623Z,6.29
2017-11-06T23:23:41.218Z,6.29
2017-11-06T23:26:08.782Z,6.31
2017-11-06T23:28:36.326Z,6.32
2017-11-06T23:31:03.900Z,6.31
2017-11-06T23:33:31.543Z,6.32
2017-11-06T23:35:59.153Z,6.32
2017-11-06T23:38:26.701Z,6.32
2017-11-06T23:40:54.254Z,6.32
2017-11-06T23:43:21.934Z,6.33
2017-11-06T23:45:49.465Z,6.33
2017-11-06T23:48:17.033Z,6.33
2017-11-06T23:50:44.586Z,6.32
2017-11-06T23:53:12.525Z,6.33
2017-11-06T23:55:40.070Z,6.33
2017-11-06T23:58:07.625Z,6.33
